Time;durP1;ratioP1;P1;durP2;ratioP2;P2;SDS_P1;SDS_P2;PMS_P1;PMS_P2;Temp;Humidity;BMP_temperature;BMP_pressure;BME280_temperature;BME280_humidity;BME280_pressure;Samples;Min_cycle;Max_cycle;Signal;HPM_P1;HPM_P2
2021/09/26 00:02:06;;;;;;;;;;;13.50;99.90;;;;;;5069996;28;19967;-69
2021/09/26 00:04:33;;;;;;;;;;;13.50;99.90;;;;;;5070356;28;19908;-69
2021/09/26 00:06:59;;;;;;;;;;;13.50;99.90;;;;;;5070519;28;19979;-68
2021/09/26 00:09:28;;;;;;;;;;;13.60;99.90;;;;;;5069518;28;20386;-67
2021/09/26 00:11:58;;;;;;;;;;;13.50;99.90;;;;;;5070071;28;19908;-68
2021/09/26 00:14:24;;;;;;;;;;;13.50;99.90;;;;;;5069703;28;19912;-68
2021/09/26 00:16:54;;;;;;;;;;;13.50;99.90;;;;;;5070193;28;19940;-68
2021/09/26 00:19:21;;;;;;;;;;;13.50;99.90;;;;;;5070363;28;19962;-68
2021/09/26 00:21:50;;;;;;;;;;;13.50;99.90;;;;;;5073042;28;19994;-69
2021/09/26 00:24:17;;;;;;;;;;;13.60;99.90;;;;;;5069832;28;20302;-68
2021/09/26 00:26:44;;;;;;;;;;;13.60;99.90;;;;;;5069769;28;19909;-68
2021/09/26 00:29:10;;;;;;;;;;;13.60;99.90;;;;;;5069733;28;19916;-69
2021/09/26 00:31:37;;;;;;;;;;;13.70;99.90;;;;;;5069981;28;19908;-69
2021/09/26 00:34:04;;;;;;;;;;;13.70;99.90;;;;;;5070162;28;19912;-69
2021/09/26 00:36:30;;;;;;;;;;;13.70;99.90;;;;;;5070100;28;19962;-68
2021/09/26 00:38:57;;;;;;;;;;;13.70;99.90;;;;;;5069327;28;19920;-68
2021/09/26 00:41:24;;;;;;;;;;;13.80;99.90;;;;;;5069642;28;19995;-68
2021/09/26 00:43:50;;;;;;;;;;;13.90;99.90;;;;;;5070062;28;19915;-68
2021/09/26 00:46:17;;;;;;;;;;;14.00;99.90;;;;;;5102284;28;19916;-69
2021/09/26 00:48:44;;;;;;;;;;;13.80;99.90;;;;;;5069920;28;19909;-69
2021/09/26 00:51:11;;;;;;;;;;;13.80;99.90;;;;;;5070343;28;19968;-69
2021/09/26 00:53:38;;;;;;;;;;;13.80;99.90;;;;;;5069752;28;19912;-69
2021/09/26 00:56:05;;;;;;;;;;;13.70;99.90;;;;;;5070507;28;19909;-69
2021/09/26 00:58:31;;;;;;;;;;;13.70;99.90;;;;;;5070526;28;19909;-69
2021/09/26 01:00:58;;;;;;;;;;;13.70;99.90;;;;;;5070365;28;19913;-70
2021/09/26 01:03:25;;;;;;;;;;;13.70;99.90;;;;;;5071094;28;19935;-70
2021/09/26 01:06:10;;;;;;;;;;;13.70;99.90;;;;;;5073549;28;19908;-69
2021/09/26 01:08:56;;;;;;;;;;;13.90;99.80;;;;;;5073019;28;20007;-69
2021/09/26 01:11:37;;;;;;;;;;;13.90;99.30;;;;;;5073449;28;19917;-70
2021/09/26 01:14:06;;;;;;;;;;;13.90;99.40;;;;;;5091821;28;20008;-69
2021/09/26 01:16:37;;;;;;;;;;;13.90;99.40;;;;;;5093240;28;19912;-69
2021/09/26 01:19:20;;;;;;;;;;;13.90;99.90;;;;;;5093279;28;19908;-70
2021/09/26 01:21:54;;;;;;;;;;;14.00;99.90;;;;;;5092007;28;20268;-68
2021/09/26 01:24:20;;;;;;;;;;;14.00;99.60;;;;;;5092961;28;19909;-68
2021/09/26 01:27:11;;;;;;;;;;;14.10;99.90;;;;;;5093018;28;19987;-69
2021/09/26 01:30:04;;;;;;;;;;;14.10;99.70;;;;;;5073377;28;19916;-69
2021/09/26 01:32:33;;;;;;;;;;;14.00;99.40;;;;;;5076488;28;19995;-68
2021/09/26 01:35:01;;;;;;;;;;;14.00;99.90;;;;;;5092824;28;19912;-69
2021/09/26 01:37:37;;;;;;;;;;;14.00;99.90;;;;;;5092908;28;20362;-69
2021/09/26 01:40:07;;;;;;;;;;;14.10;99.50;;;;;;5092688;28;20325;-68
2021/09/26 01:42:36;;;;;;;;;;;14.10;99.90;;;;;;5092534;28;19908;-68
2021/09/26 01:45:14;;;;;;;;;;;14.20;99.90;;;;;;5092741;28;20283;-68
2021/09/26 01:47:43;;;;;;;;;;;14.20;99.90;;;;;;5091069;28;20278;-69
2021/09/26 01:50:10;;;;;;;;;;;14.20;99.90;;;;;;5092056;28;19921;-68
2021/09/26 01:52:39;;;;;;;;;;;14.20;99.90;;;;;;5092133;28;19908;-67
2021/09/26 01:55:07;;;;;;;;;;;14.30;99.90;;;;;;5092443;28;19911;-69
2021/09/26 01:57:37;;;;;;;;;;;14.30;99.90;;;;;;5092391;28;19908;-68
2021/09/26 02:00:04;;;;;;;;;;;14.30;99.90;;;;;;5092395;28;19915;-68
2021/09/26 02:02:32;;;;;;;;;;;14.30;99.90;;;;;;5092688;28;19915;-68
2021/09/26 02:05:01;;;;;;;;;;;14.30;99.90;;;;;;5092227;28;20044;-68
2021/09/26 02:07:32;;;;;;;;;;;14.30;99.80;;;;;;5091904;28;20239;-68
2021/09/26 02:09:59;;;;;;;;;;;14.40;99.60;;;;;;5092088;28;20283;-67
2021/09/26 02:12:27;;;;;;;;;;;14.30;99.90;;;;;;5091808;28;20020;-68
2021/09/26 02:14:55;;;;;;;;;;;14.30;99.90;;;;;;5090902;28;20050;-68
2021/09/26 02:17:23;;;;;;;;;;;14.30;99.90;;;;;;5092412;28;19908;-68
2021/09/26 02:19:54;;;;;;;;;;;14.40;99.90;;;;;;5091846;28;19919;-68
2021/09/26 02:22:20;;;;;;;;;;;14.40;99.90;;;;;;5091738;28;19912;-68
2021/09/26 02:24:47;;;;;;;;;;;14.40;99.50;;;;;;5091636;28;19919;-69
2021/09/26 02:27:14;;;;;;;;;;;14.40;99.60;;;;;;5091977;28;19915;-67
2021/09/26 02:29:40;;;;;;;;;;;14.40;99.80;;;;;;5091341;28;19916;-68
2021/09/26 02:32:07;;;;;;;;;;;14.50;99.90;;;;;;5091528;28;19908;-67
2021/09/26 02:34:34;;;;;;;;;;;14.70;99.50;;;;;;5091924;28;19914;-68
2021/09/26 02:37:00;;;;;;;;;;;14.60;99.60;;;;;;5091447;28;19991;-69
2021/09/26 02:39:27;;;;;;;;;;;14.50;99.80;;;;;;5091216;28;19908;-68
2021/09/26 02:42:04;;;;;;;;;;;14.60;99.90;;;;;;5091662;28;19919;-68
2021/09/26 02:44:50;;;;;;;;;;;14.60;99.40;;;;;;5091301;28;20244;-68
2021/09/26 02:47:19;;;;;;;;;;;14.70;99.30;;;;;;5091621;28;19908;-69
2021/09/26 02:49:46;;;;;;;;;;;14.80;99.00;;;;;;5090774;28;19920;-68
2021/09/26 02:52:13;;;;;;;;;;;14.80;99.30;;;;;;5090622;28;19919;-68
2021/09/26 02:54:41;;;;;;;;;;;14.80;98.80;;;;;;5091129;28;19915;-68
2021/09/26 02:57:09;;;;;;;;;;;14.90;98.60;;;;;;5091456;28;19908;-67
2021/09/26 02:59:36;;;;;;;;;;;15.00;98.50;;;;;;5090974;28;19912;-68
2021/09/26 03:02:03;;;;;;;;;;;15.10;98.40;;;;;;5091894;28;19915;-68
2021/09/26 03:04:30;;;;;;;;;;;15.10;98.40;;;;;;5090175;28;19912;-69
2021/09/26 03:06:57;;;;;;;;;;;15.10;98.10;;;;;;5073289;28;19992;-68
2021/09/26 03:09:24;;;;;;;;;;;15.00;98.30;;;;;;5070823;28;19917;-68
2021/09/26 03:11:51;;;;;;;;;;;14.90;98.00;;;;;;5070785;28;19965;-69
2021/09/26 03:14:17;;;;;;;;;;;14.90;98.50;;;;;;5070442;28;20366;-69
2021/09/26 03:16:44;;;;;;;;;;;14.90;98.60;;;;;;5070759;28;19912;-68
2021/09/26 03:19:11;;;;;;;;;;;15.00;98.70;;;;;;5070748;28;19908;-69
2021/09/26 03:21:37;;;;;;;;;;;15.00;98.40;;;;;;5070729;28;20279;-69
2021/09/26 03:24:04;;;;;;;;;;;15.10;97.90;;;;;;5072400;28;19909;-69
2021/09/26 03:26:31;;;;;;;;;;;15.20;97.90;;;;;;5072569;28;20344;-68
2021/09/26 03:28:57;;;;;;;;;;;15.30;97.90;;;;;;5072487;28;20430;-68
2021/09/26 03:31:24;;;;;;;;;;;15.20;98.10;;;;;;5072891;28;20003;-68
2021/09/26 03:33:54;;;;;;;;;;;15.20;98.10;;;;;;5072731;28;20026;-68
2021/09/26 03:36:21;;;;;;;;;;;15.20;98.40;;;;;;5074153;28;19909;-68
2021/09/26 03:38:47;;;;;;;;;;;15.20;97.50;;;;;;5072928;28;20003;-69
2021/09/26 03:41:14;;;;;;;;;;;15.20;98.20;;;;;;5072836;28;19915;-69
2021/09/26 03:43:41;;;;;;;;;;;15.10;98.10;;;;;;5072598;28;19909;-68
2021/09/26 03:46:07;;;;;;;;;;;15.10;98.20;;;;;;5072804;28;19959;-69
2021/09/26 03:48:34;;;;;;;;;;;15.10;98.20;;;;;;5072661;28;19916;-69
2021/09/26 03:51:02;;;;;;;;;;;15.10;98.80;;;;;;5072566;28;19920;-69
2021/09/26 03:53:28;;;;;;;;;;;15.20;98.60;;;;;;5072554;28;20007;-68
2021/09/26 03:55:55;;;;;;;;;;;15.20;98.50;;;;;;5072423;28;19996;-69
2021/09/26 03:58:22;;;;;;;;;;;15.20;98.80;;;;;;5072492;28;20327;-69
2021/09/26 04:00:48;;;;;;;;;;;15.10;99.00;;;;;;5072188;28;19914;-69
2021/09/26 04:03:15;;;;;;;;;;;15.10;99.20;;;;;;5072544;28;19951;-69
2021/09/26 04:05:42;;;;;;;;;;;15.10;99.10;;;;;;5072351;28;19908;-68
2021/09/26 04:08:08;;;;;;;;;;;15.10;98.90;;;;;;5072566;28;19908;-69
2021/09/26 04:10:35;;;;;;;;;;;15.10;98.30;;;;;;5072172;28;20430;-69
2021/09/26 04:13:01;;;;;;;;;;;14.90;98.60;;;;;;5072431;28;19909;-69
2021/09/26 04:15:28;;;;;;;;;;;14.90;98.70;;;;;;5072144;28;19913;-69
2021/09/26 04:17:56;;;;;;;;;;;15.00;98.90;;;;;;5072405;28;19920;-68
2021/09/26 04:20:23;;;;;;;;;;;15.20;99.00;;;;;;5072281;28;19931;-69
2021/09/26 04:22:49;;;;;;;;;;;15.20;98.20;;;;;;5072427;28;20015;-69
2021/09/26 04:25:16;;;;;;;;;;;15.10;98.20;;;;;;5072488;28;20438;-69
2021/09/26 04:27:45;;;;;;;;;;;15.10;98.90;;;;;;5072521;28;19908;-69
2021/09/26 04:30:12;;;;;;;;;;;15.20;98.40;;;;;;5072370;28;19916;-69
2021/09/26 04:32:40;;;;;;;;;;;15.10;98.50;;;;;;5072428;28;20383;-71
2021/09/26 04:35:07;;;;;;;;;;;15.00;98.80;;;;;;5072813;28;19919;-69
2021/09/26 04:37:34;;;;;;;;;;;15.10;98.80;;;;;;5087676;28;19908;-69
2021/09/26 04:40:00;;;;;;;;;;;15.20;98.20;;;;;;5076156;28;20053;-69
2021/09/26 04:42:27;;;;;;;;;;;15.20;97.90;;;;;;5076202;28;19913;-69
2021/09/26 04:44:54;;;;;;;;;;;15.10;98.30;;;;;;5076121;28;20003;-69
2021/09/26 04:47:20;;;;;;;;;;;15.10;98.30;;;;;;5076285;28;20325;-68
2021/09/26 04:49:47;;;;;;;;;;;15.10;98.30;;;;;;5075514;28;19924;-69
2021/09/26 04:52:14;;;;;;;;;;;15.10;97.80;;;;;;5076240;28;19927;-69
2021/09/26 04:54:40;;;;;;;;;;;15.10;97.70;;;;;;5075896;28;19912;-69
2021/09/26 04:57:07;;;;;;;;;;;14.90;98.10;;;;;;5075667;28;19912;-70
2021/09/26 04:59:34;;;;;;;;;;;15.00;97.90;;;;;;5075774;28;19951;-68
2021/09/26 05:02:01;;;;;;;;;;;15.00;98.00;;;;;;5075825;28;20013;-69
2021/09/26 05:04:30;;;;;;;;;;;15.00;98.40;;;;;;5075823;28;20364;-68
2021/09/26 05:07:00;;;;;;;;;;;15.00;98.90;;;;;;5075807;28;19913;-69
2021/09/26 05:09:26;;;;;;;;;;;15.10;98.70;;;;;;5075609;28;19965;-67
2021/09/26 05:11:54;;;;;;;;;;;15.00;98.60;;;;;;5075697;28;19909;-69
2021/09/26 05:14:21;;;;;;;;;;;14.80;98.70;;;;;;5075600;28;19909;-69
2021/09/26 05:16:48;;;;;;;;;;;14.80;98.90;;;;;;5075464;28;19912;-69
2021/09/26 05:19:15;;;;;;;;;;;14.80;99.30;;;;;;5075875;28;19909;-70
2021/09/26 05:21:42;;;;;;;;;;;14.80;99.20;;;;;;5075400;28;20003;-68
2021/09/26 05:24:08;;;;;;;;;;;14.70;98.70;;;;;;5075603;28;19970;-69
2021/09/26 05:26:35;;;;;;;;;;;14.70;98.70;;;;;;5074812;28;19908;-68
2021/09/26 05:29:03;;;;;;;;;;;14.70;99.10;;;;;;5075350;28;19923;-68
2021/09/26 05:31:30;;;;;;;;;;;14.60;99.30;;;;;;5075380;28;19915;-71
2021/09/26 05:33:56;;;;;;;;;;;14.70;99.40;;;;;;5075714;28;20355;-69
2021/09/26 05:36:23;;;;;;;;;;;14.80;99.30;;;;;;5075300;28;19909;-69
2021/09/26 05:38:50;;;;;;;;;;;14.70;99.40;;;;;;5075074;28;19959;-69
2021/09/26 05:41:16;;;;;;;;;;;14.80;99.70;;;;;;5075076;28;20267;-70
2021/09/26 05:43:43;;;;;;;;;;;14.80;99.60;;;;;;5074854;28;19908;-69
2021/09/26 05:46:10;;;;;;;;;;;14.70;99.70;;;;;;5075011;28;20382;-69
2021/09/26 05:48:36;;;;;;;;;;;14.80;99.90;;;;;;5075047;28;19950;-68
2021/09/26 05:51:03;;;;;;;;;;;14.90;99.90;;;;;;5073978;28;19959;-70
2021/09/26 05:53:29;;;;;;;;;;;15.00;99.90;;;;;;5074773;28;19919;-69
2021/09/26 05:55:56;;;;;;;;;;;15.10;99.90;;;;;;5074973;28;19955;-68
2021/09/26 05:58:23;;;;;;;;;;;15.00;99.80;;;;;;5074852;28;19908;-68
2021/09/26 06:00:49;;;;;;;;;;;14.90;99.70;;;;;;5074601;28;19958;-70
2021/09/26 06:03:16;;;;;;;;;;;14.80;99.90;;;;;;5074647;28;19920;-69
2021/09/26 06:05:43;;;;;;;;;;;14.80;99.90;;;;;;5074636;28;20333;-69
2021/09/26 06:08:13;;;;;;;;;;;14.70;99.90;;;;;;5074480;28;19912;-69
2021/09/26 06:10:40;;;;;;;;;;;14.60;99.90;;;;;;5074647;28;19966;-69
2021/09/26 06:13:06;;;;;;;;;;;14.60;99.90;;;;;;5074717;28;20421;-68
2021/09/26 06:15:34;;;;;;;;;;;14.50;99.80;;;;;;5074360;28;20345;-70
2021/09/26 06:18:01;;;;;;;;;;;14.50;99.90;;;;;;5074532;28;20372;-70
2021/09/26 06:20:28;;;;;;;;;;;14.40;99.80;;;;;;5074471;28;19909;-69
2021/09/26 06:22:55;;;;;;;;;;;14.40;99.90;;;;;;5074529;28;20417;-70
2021/09/26 06:25:21;;;;;;;;;;;14.40;99.90;;;;;;5074004;28;19908;-70
2021/09/26 06:27:49;;;;;;;;;;;14.40;99.90;;;;;;5074079;28;19909;-69
2021/09/26 06:30:16;;;;;;;;;;;14.30;99.90;;;;;;5074167;28;19916;-69
2021/09/26 06:32:43;;;;;;;;;;;14.30;99.90;;;;;;5072988;28;20283;-70
2021/09/26 06:35:09;;;;;;;;;;;14.40;99.90;;;;;;5074091;28;19912;-70
2021/09/26 06:37:36;;;;;;;;;;;14.40;99.90;;;;;;5073967;28;19996;-71
2021/09/26 06:40:03;;;;;;;;;;;14.30;99.90;;;;;;5073855;28;19909;-69
2021/09/26 06:42:30;;;;;;;;;;;14.20;99.90;;;;;;5073939;28;19992;-70
2021/09/26 06:44:57;;;;;;;;;;;14.20;99.90;;;;;;5074016;28;20248;-69
2021/09/26 06:47:23;;;;;;;;;;;14.20;99.90;;;;;;5074267;28;19962;-69
2021/09/26 06:49:50;;;;;;;;;;;14.10;99.90;;;;;;5073277;28;19932;-68
2021/09/26 06:52:17;;;;;;;;;;;14.10;99.90;;;;;;5073668;28;19916;-68
2021/09/26 06:54:43;;;;;;;;;;;14.10;99.90;;;;;;5073700;28;19909;-68
2021/09/26 06:57:10;;;;;;;;;;;14.10;99.90;;;;;;5073797;28;19909;-69
2021/09/26 06:59:39;;;;;;;;;;;14.30;99.90;;;;;;5073208;28;19934;-69
2021/09/26 07:02:07;;;;;;;;;;;14.20;99.90;;;;;;5073051;28;20272;-69
2021/09/26 07:04:34;;;;;;;;;;;14.30;99.90;;;;;;5073919;28;19908;-69
2021/09/26 07:07:01;;;;;;;;;;;14.30;99.90;;;;;;5073667;28;19908;-69
2021/09/26 07:09:27;;;;;;;;;;;14.40;99.90;;;;;;5073623;28;19995;-69
2021/09/26 07:11:54;;;;;;;;;;;14.30;99.90;;;;;;5073477;28;19908;-70
2021/09/26 07:14:21;;;;;;;;;;;14.30;99.90;;;;;;5073747;28;19962;-70
2021/09/26 07:16:47;;;;;;;;;;;14.20;99.90;;;;;;5073418;28;19913;-70
2021/09/26 07:19:15;;;;;;;;;;;14.10;99.90;;;;;;5073874;28;20327;-69
2021/09/26 07:21:42;;;;;;;;;;;13.90;99.90;;;;;;5073473;28;19908;-69
2021/09/26 07:24:08;;;;;;;;;;;13.70;99.90;;;;;;5073240;28;19908;-69
2021/09/26 07:26:35;;;;;;;;;;;13.60;99.90;;;;;;5073669;28;19908;-71
2021/09/26 07:29:02;;;;;;;;;;;13.50;99.90;;;;;;5073466;28;20382;-69
2021/09/26 07:31:28;;;;;;;;;;;13.40;99.90;;;;;;5072876;28;19913;-70
2021/09/26 07:33:55;;;;;;;;;;;13.40;99.90;;;;;;5073362;28;19926;-70
2021/09/26 07:36:22;;;;;;;;;;;13.40;99.90;;;;;;5073670;28;19909;-71
2021/09/26 07:38:48;;;;;;;;;;;13.40;99.90;;;;;;5072745;28;20007;-70
2021/09/26 07:41:15;;;;;;;;;;;13.40;99.90;;;;;;5073394;28;19915;-70
2021/09/26 07:43:42;;;;;;;;;;;13.50;99.90;;;;;;5084762;28;19908;-69
2021/09/26 07:46:08;;;;;;;;;;;13.50;99.90;;;;;;5092885;28;20282;-69
2021/09/26 07:48:35;;;;;;;;;;;13.50;99.90;;;;;;5092721;28;20355;-70
2021/09/26 07:51:02;;;;;;;;;;;13.50;99.90;;;;;;5092481;28;19924;-71
2021/09/26 07:53:28;;;;;;;;;;;13.50;99.90;;;;;;5092663;28;19948;-70
2021/09/26 07:55:59;;;;;;;;;;;13.50;99.90;;;;;;5092009;28;20273;-69
2021/09/26 07:58:28;;;;;;;;;;;13.50;99.90;;;;;;5092342;28;19908;-70
2021/09/26 08:00:55;;;;;;;;;;;13.50;99.90;;;;;;5091485;28;20242;-71
2021/09/26 08:03:22;;;;;;;;;;;13.50;99.90;;;;;;5092835;28;19915;-71
2021/09/26 08:05:48;;;;;;;;;;;13.50;99.90;;;;;;5092424;28;19951;-71
2021/09/26 08:08:15;;;;;;;;;;;13.50;99.90;;;;;;5092487;28;19995;-69
2021/09/26 08:10:42;;;;;;;;;;;13.50;99.90;;;;;;5092523;28;19916;-69
2021/09/26 08:13:11;;;;;;;;;;;13.50;99.90;;;;;;5091221;28;19909;-70
2021/09/26 08:15:38;;;;;;;;;;;13.50;99.90;;;;;;5092266;28;20028;-69
2021/09/26 08:18:05;;;;;;;;;;;13.50;99.90;;;;;;5092581;28;19916;-70
2021/09/26 08:20:31;;;;;;;;;;;13.50;99.90;;;;;;5093075;28;20270;-71
2021/09/26 08:22:58;;;;;;;;;;;13.50;99.90;;;;;;5092978;28;20347;-70
2021/09/26 08:25:25;;;;;;;;;;;13.50;99.90;;;;;;5092618;28;20003;-70
2021/09/26 08:27:51;;;;;;;;;;;13.60;99.90;;;;;;5091920;28;20393;-70
2021/09/26 08:30:19;;;;;;;;;;;13.60;99.90;;;;;;5092597;28;20015;-70
2021/09/26 08:32:46;;;;;;;;;;;13.60;99.90;;;;;;5093220;28;19908;-68
2021/09/26 08:35:13;;;;;;;;;;;13.50;99.90;;;;;;5091505;28;20256;-70
2021/09/26 08:37:40;;;;;;;;;;;13.60;99.90;;;;;;5092341;28;19915;-69
2021/09/26 08:40:08;;;;;;;;;;;13.50;99.90;;;;;;5092168;28;19997;-71
2021/09/26 08:42:37;;;;;;;;;;;13.50;99.90;;;;;;5091778;28;19912;-70
2021/09/26 08:45:08;;;;;;;;;;;13.40;99.90;;;;;;5092389;28;19912;-72
2021/09/26 08:47:39;;;;;;;;;;;13.40;99.90;;;;;;5092170;28;20260;-70
2021/09/26 08:50:07;;;;;;;;;;;13.40;99.90;;;;;;5092123;28;19924;-71
2021/09/26 08:52:33;;;;;;;;;;;13.40;99.90;;;;;;5092487;28;19954;-72
2021/09/26 08:55:00;;;;;;;;;;;13.30;99.90;;;;;;5092720;28;19916;-71
2021/09/26 08:57:27;;;;;;;;;;;13.40;99.90;;;;;;5091543;28;20009;-71
2021/09/26 08:59:53;;;;;;;;;;;13.40;99.90;;;;;;5092016;28;19953;-72
2021/09/26 09:02:20;;;;;;;;;;;13.40;99.90;;;;;;5092010;28;19908;-71
2021/09/26 09:04:47;;;;;;;;;;;13.40;99.90;;;;;;5092054;28;20026;-71
2021/09/26 09:07:13;;;;;;;;;;;13.40;99.90;;;;;;5091793;28;19915;-71
2021/09/26 09:09:51;;;;;;;;;;;13.40;99.90;;;;;;5091724;28;20286;-71
2021/09/26 09:12:18;;;;;;;;;;;13.40;99.90;;;;;;5090960;28;19914;-71
2021/09/26 09:14:55;;;;;;;;;;;13.40;99.90;;;;;;5092130;28;20006;-71
2021/09/26 09:17:27;;;;;;;;;;;13.40;99.90;;;;;;5092059;28;20274;-71
2021/09/26 09:20:12;;;;;;;;;;;13.40;99.90;;;;;;5091706;28;19908;-70
2021/09/26 09:22:39;;;;;;;;;;;13.40;99.90;;;;;;5091925;28;19995;-69
2021/09/26 09:25:05;;;;;;;;;;;13.40;99.90;;;;;;5094113;28;19954;-70
2021/09/26 09:27:33;;;;;;;;;;;13.40;99.90;;;;;;5095315;28;20007;-71
2021/09/26 09:30:01;;;;;;;;;;;13.40;99.90;;;;;;5095336;28;19920;-70
2021/09/26 09:32:29;;;;;;;;;;;13.40;99.90;;;;;;5095432;28;19908;-69
2021/09/26 09:34:55;;;;;;;;;;;13.40;99.90;;;;;;5095435;28;20038;-69
2021/09/26 09:37:24;;;;;;;;;;;13.50;99.90;;;;;;5095361;28;19952;-70
2021/09/26 09:40:08;;;;;;;;;;;13.50;99.90;;;;;;5095066;28;20373;-71
2021/09/26 09:42:40;;;;;;;;;;;13.60;99.90;;;;;;5093915;28;20321;-71
2021/09/26 09:45:18;;;;;;;;;;;13.60;99.90;;;;;;5095303;28;19926;-70
2021/09/26 09:48:14;;;;;;;;;;;13.60;99.90;;;;;;5091044;28;20259;-70
2021/09/26 09:51:13;;;;;;;;;;;13.60;99.90;;;;;;5069878;28;19920;-70
2021/09/26 09:53:39;;;;;;;;;;;13.60;99.90;;;;;;5070009;28;19923;-70
2021/09/26 09:56:06;;;;;;;;;;;13.60;99.90;;;;;;5074759;28;19916;-72
2021/09/26 09:58:34;;;;;;;;;;;13.60;99.90;;;;;;5075009;28;19963;-71
2021/09/26 10:01:01;;;;;;;;;;;13.60;99.90;;;;;;5074826;28;19909;-70
2021/09/26 10:03:37;;;;;;;;;;;13.60;99.90;;;;;;5073893;28;19908;-71
2021/09/26 10:06:18;;;;;;;;;;;13.60;99.90;;;;;;5074711;28;19999;-71
2021/09/26 10:08:45;;;;;;;;;;;13.60;99.90;;;;;;5074615;28;19915;-70
2021/09/26 10:11:12;;;;;;;;;;;13.70;99.90;;;;;;5074488;28;19916;-70
2021/09/26 10:13:39;;;;;;;;;;;13.60;99.90;;;;;;5074050;28;19908;-69
2021/09/26 10:16:06;;;;;;;;;;;13.60;99.90;;;;;;5073703;28;20268;-68
2021/09/26 10:18:34;;;;;;;;;;;13.50;99.90;;;;;;5074409;28;19909;-69
2021/09/26 10:21:01;;;;;;;;;;;13.50;99.90;;;;;;5074394;28;19909;-71
2021/09/26 10:23:28;;;;;;;;;;;13.40;99.90;;;;;;5074249;28;19916;-69
2021/09/26 10:25:56;;;;;;;;;;;13.30;99.90;;;;;;5073991;28;19908;-71
2021/09/26 10:28:27;;;;;;;;;;;13.30;99.90;;;;;;5073869;28;19909;-70
2021/09/26 10:30:55;;;;;;;;;;;13.20;99.90;;;;;;5073728;28;20367;-70
2021/09/26 10:33:23;;;;;;;;;;;13.20;99.90;;;;;;5106764;28;20385;-70
2021/09/26 10:35:50;;;;;;;;;;;13.30;99.90;;;;;;5073380;28;20193;-70
2021/09/26 10:38:17;;;;;;;;;;;13.20;99.90;;;;;;5073813;28;20383;-70
2021/09/26 10:40:44;;;;;;;;;;;13.30;99.90;;;;;;5072466;28;20508;-69
2021/09/26 10:43:29;;;;;;;;;;;13.20;99.90;;;;;;5073973;28;19950;-70
2021/09/26 10:46:13;;;;;;;;;;;13.30;99.90;;;;;;5073248;28;19908;-71
2021/09/26 10:48:58;;;;;;;;;;;13.20;99.90;;;;;;5073970;28;19909;-70
2021/09/26 10:51:40;;;;;;;;;;;13.20;99.90;;;;;;5073620;28;19920;-70
2021/09/26 10:54:22;;;;;;;;;;;13.20;99.90;;;;;;5073793;28;20392;-71
2021/09/26 10:56:49;;;;;;;;;;;13.30;99.90;;;;;;5073808;28;20380;-70
2021/09/26 10:59:16;;;;;;;;;;;13.20;99.90;;;;;;5073754;28;20390;-69
2021/09/26 11:01:42;;;;;;;;;;;13.20;99.90;;;;;;5072789;28;19975;-70
2021/09/26 11:04:13;;;;;;;;;;;13.20;99.90;;;;;;5073395;28;19915;-67
2021/09/26 11:06:39;;;;;;;;;;;13.20;99.90;;;;;;5073338;28;19957;-71
2021/09/26 11:09:09;;;;;;;;;;;13.30;99.90;;;;;;5073264;28;20330;-71
2021/09/26 11:11:36;;;;;;;;;;;13.30;99.90;;;;;;5073066;28;19916;-71
2021/09/26 11:14:03;;;;;;;;;;;13.20;99.90;;;;;;5073215;28;20367;-71
2021/09/26 11:16:49;;;;;;;;;;;13.20;99.90;;;;;;5072678;28;19920;-71
2021/09/26 11:19:17;;;;;;;;;;;13.10;99.90;;;;;;5073270;28;19946;-70
2021/09/26 11:21:44;;;;;;;;;;;13.20;99.90;;;;;;5072648;28;19912;-69
2021/09/26 11:24:24;;;;;;;;;;;13.10;99.90;;;;;;5073159;28;19923;-70
2021/09/26 11:27:00;;;;;;;;;;;13.10;99.90;;;;;;5072975;28;19909;-69
2021/09/26 11:29:26;;;;;;;;;;;13.10;99.90;;;;;;5073163;28;19917;-70
2021/09/26 11:31:53;;;;;;;;;;;13.20;99.90;;;;;;5072282;28;20268;-71
2021/09/26 11:34:40;;;;;;;;;;;13.30;99.90;;;;;;5072986;28;19915;-70
2021/09/26 11:37:07;;;;;;;;;;;13.30;99.90;;;;;;5072946;28;19965;-70
2021/09/26 11:39:34;;;;;;;;;;;13.40;99.90;;;;;;5073044;28;19965;-71
2021/09/26 11:42:01;;;;;;;;;;;13.50;99.90;;;;;;5072949;28;19908;-72
2021/09/26 11:44:27;;;;;;;;;;;13.50;99.90;;;;;;5072735;28;19914;-71
2021/09/26 11:46:55;;;;;;;;;;;13.50;99.90;;;;;;5072341;28;19952;-71
2021/09/26 11:49:22;;;;;;;;;;;13.50;99.90;;;;;;5072904;28;19917;-72
2021/09/26 11:51:52;;;;;;;;;;;13.30;99.90;;;;;;5072728;28;19966;-71
2021/09/26 11:54:18;;;;;;;;;;;13.10;99.90;;;;;;5072770;28;19908;-72
2021/09/26 11:56:45;;;;;;;;;;;12.90;99.90;;;;;;5072628;28;19980;-72
2021/09/26 11:59:13;;;;;;;;;;;12.80;99.90;;;;;;5073069;28;19948;-72
2021/09/26 12:01:46;;;;;;;;;;;12.70;99.90;;;;;;5071943;28;19913;-71
2021/09/26 12:04:17;;;;;;;;;;;12.70;99.90;;;;;;5072551;28;19919;-71
2021/09/26 12:06:46;;;;;;;;;;;12.60;99.90;;;;;;5072691;28;19931;-70
2021/09/26 12:09:33;;;;;;;;;;;12.50;99.90;;;;;;5074406;28;19962;-72
2021/09/26 12:12:00;;;;;;;;;;;12.50;99.90;;;;;;5072823;28;20260;-72
2021/09/26 12:14:30;;;;;;;;;;;12.50;99.90;;;;;;5072489;28;19953;-72
2021/09/26 12:17:01;;;;;;;;;;;12.60;99.90;;;;;;5071780;28;19919;-70
2021/09/26 12:19:28;;;;;;;;;;;12.60;99.90;;;;;;5072460;28;19963;-72
2021/09/26 12:22:00;;;;;;;;;;;12.70;99.90;;;;;;5072320;28;20313;-71
2021/09/26 12:24:31;;;;;;;;;;;12.70;99.90;;;;;;5072402;28;19912;-70
2021/09/26 12:26:58;;;;;;;;;;;12.80;99.90;;;;;;5072128;28;20319;-71
2021/09/26 12:29:29;;;;;;;;;;;12.80;99.90;;;;;;5072054;28;19935;-71
2021/09/26 12:31:56;;;;;;;;;;;12.80;99.90;;;;;;5070295;28;20283;-71
2021/09/26 12:34:23;;;;;;;;;;;12.80;99.90;;;;;;5072240;28;19914;-71
2021/09/26 12:36:50;;;;;;;;;;;12.80;99.90;;;;;;5071731;28;19908;-71
2021/09/26 12:39:20;;;;;;;;;;;12.70;99.90;;;;;;5072145;28;19915;-71
2021/09/26 12:41:48;;;;;;;;;;;12.80;99.90;;;;;;5071954;28;19988;-71
2021/09/26 12:44:23;;;;;;;;;;;12.80;99.90;;;;;;5072353;28;20350;-71
2021/09/26 12:46:50;;;;;;;;;;;12.80;99.90;;;;;;5072079;28;19935;-72
2021/09/26 12:49:19;;;;;;;;;;;12.80;99.90;;;;;;5072098;28;20264;-70
2021/09/26 12:51:53;;;;;;;;;;;12.70;99.90;;;;;;5071241;28;19942;-71
2021/09/26 12:54:29;;;;;;;;;;;12.60;99.90;;;;;;5072037;28;19912;-71
2021/09/26 12:56:58;;;;;;;;;;;12.50;99.90;;;;;;5072093;28;19913;-72
2021/09/26 12:59:32;;;;;;;;;;;12.50;99.90;;;;;;5073183;28;19909;-71
2021/09/26 13:01:59;;;;;;;;;;;12.50;99.90;;;;;;5075775;28;19922;-71
2021/09/26 13:04:26;;;;;;;;;;;12.40;99.90;;;;;;5075904;28;19999;-70
2021/09/26 13:06:54;;;;;;;;;;;12.40;99.90;;;;;;5075564;28;19908;-69
2021/09/26 13:09:41;;;;;;;;;;;12.40;99.90;;;;;;5075593;28;19939;-69
2021/09/26 13:12:24;;;;;;;;;;;12.40;99.90;;;;;;5075676;28;19908;-71
2021/09/26 13:15:09;;;;;;;;;;;12.40;99.90;;;;;;5075870;28;20371;-73
2021/09/26 13:17:36;;;;;;;;;;;12.50;99.90;;;;;;5075532;28;19908;-71
2021/09/26 13:20:18;;;;;;;;;;;12.50;99.90;;;;;;5075651;28;19916;-72
2021/09/26 13:22:44;;;;;;;;;;;12.40;99.90;;;;;;5075333;28;19948;-72
2021/09/26 13:25:11;;;;;;;;;;;12.40;99.90;;;;;;5075548;28;20011;-71
2021/09/26 13:27:45;;;;;;;;;;;12.40;99.90;;;;;;5075190;28;19909;-71
2021/09/26 13:30:30;;;;;;;;;;;12.40;99.90;;;;;;5075380;28;19939;-71
2021/09/26 13:32:56;;;;;;;;;;;12.40;99.90;;;;;;5075184;28;19915;-71
2021/09/26 13:35:25;;;;;;;;;;;12.30;99.90;;;;;;5075375;28;20253;-72
2021/09/26 13:38:10;;;;;;;;;;;12.30;99.90;;;;;;5075077;28;19915;-72
2021/09/26 13:40:38;;;;;;;;;;;12.30;99.90;;;;;;5075274;28;20376;-72
2021/09/26 13:43:07;;;;;;;;;;;12.20;99.90;;;;;;5075228;28;20377;-72
2021/09/26 13:45:33;;;;;;;;;;;12.20;99.90;;;;;;5074841;28;19908;-72
2021/09/26 13:48:03;;;;;;;;;;;12.20;99.90;;;;;;5075277;28;19995;-71
2021/09/26 13:50:29;;;;;;;;;;;12.20;99.90;;;;;;5074799;28;20020;-71
2021/09/26 13:52:56;;;;;;;;;;;12.20;99.90;;;;;;5074942;28;19913;-72
2021/09/26 13:55:23;;;;;;;;;;;12.20;99.90;;;;;;5074930;28;19932;-72
2021/09/26 13:57:49;;;;;;;;;;;12.20;99.90;;;;;;5074604;28;19916;-72
2021/09/26 14:00:16;;;;;;;;;;;12.10;99.90;;;;;;5074870;28;20381;-72
2021/09/26 14:02:43;;;;;;;;;;;12.10;99.90;;;;;;5074890;28;19999;-72
2021/09/26 14:05:09;;;;;;;;;;;12.00;99.90;;;;;;5074760;28;20393;-72
2021/09/26 14:07:36;;;;;;;;;;;12.00;99.90;;;;;;5074399;28;19908;-72
2021/09/26 14:10:03;;;;;;;;;;;12.00;99.90;;;;;;5074347;28;19921;-71
2021/09/26 14:12:31;;;;;;;;;;;11.90;99.90;;;;;;5074026;28;19908;-72
2021/09/26 14:14:57;;;;;;;;;;;11.90;99.90;;;;;;5074814;28;20439;-71
2021/09/26 14:17:24;;;;;;;;;;;11.90;99.90;;;;;;5074660;28;19962;-71
2021/09/26 14:19:50;;;;;;;;;;;11.90;99.90;;;;;;5074281;28;20363;-72
2021/09/26 14:22:17;;;;;;;;;;;12.00;99.90;;;;;;5074406;28;20355;-69
2021/09/26 14:24:44;;;;;;;;;;;12.00;99.90;;;;;;5074314;28;19954;-69
2021/09/26 14:27:11;;;;;;;;;;;12.00;99.90;;;;;;5074241;28;19948;-69